sensor_id;sensor_type;location;lat;lon;timestamp;pressure;altitude;pressure_sealevel;temperature;humidity
45888;BME280;31595;51.418;7.572;2022-10-17T00:01:06;100464.78;;;14.97;76.58
45888;BME280;31595;51.418;7.572;2022-10-17T00:03:36;100465.94;;;14.96;77.56
45888;BME280;31595;51.418;7.572;2022-10-17T00:06:05;100463.00;;;14.92;77.61
45888;BME280;31595;51.418;7.572;2022-10-17T00:08:33;100464.66;;;14.93;77.19
45888;BME280;31595;51.418;7.572;2022-10-17T00:11:02;100473.56;;;14.95;76.36
45888;BME280;31595;51.418;7.572;2022-10-17T00:13:29;100474.22;;;14.92;77.45
45888;BME280;31595;51.418;7.572;2022-10-17T00:15:57;100469.66;;;14.88;76.58
45888;BME280;31595;51.418;7.572;2022-10-17T00:18:25;100465.56;;;14.85;77.00
45888;BME280;31595;51.418;7.572;2022-10-17T00:20:53;100470.81;;;14.87;76.69
45888;BME280;31595;51.418;7.572;2022-10-17T00:23:21;100463.22;;;14.87;77.37
45888;BME280;31595;51.418;7.572;2022-10-17T00:25:57;100464.38;;;14.86;77.09
45888;BME280;31595;51.418;7.572;2022-10-17T00:28:24;100468.47;;;14.89;76.65
45888;BME280;31595;51.418;7.572;2022-10-17T00:30:54;100475.25;;;14.88;76.68
45888;BME280;31595;51.418;7.572;2022-10-17T00:33:22;100465.06;;;14.83;78.10
45888;BME280;31595;51.418;7.572;2022-10-17T00:35:49;100463.41;;;14.82;77.02
45888;BME280;31595;51.418;7.572;2022-10-17T00:38:17;100464.25;;;14.82;78.42
45888;BME280;31595;51.418;7.572;2022-10-17T00:40:45;100463.41;;;14.82;77.47
45888;BME280;31595;51.418;7.572;2022-10-17T00:43:15;100461.09;;;14.84;77.27
45888;BME280;31595;51.418;7.572;2022-10-17T00:45:43;100457.94;;;14.86;78.10
45888;BME280;31595;51.418;7.572;2022-10-17T00:48:11;100459.13;;;14.85;78.35
45888;BME280;31595;51.418;7.572;2022-10-17T00:50:42;100459.13;;;14.85;77.42
45888;BME280;31595;51.418;7.572;2022-10-17T00:53:10;100451.88;;;14.84;78.01
45888;BME280;31595;51.418;7.572;2022-10-17T00:55:45;100459.94;;;14.85;77.55
45888;BME280;31595;51.418;7.572;2022-10-17T00:58:15;100451.19;;;14.87;77.40
45888;BME280;31595;51.418;7.572;2022-10-17T01:00:43;100457.13;;;14.85;78.26
45888;BME280;31595;51.418;7.572;2022-10-17T01:03:12;100447.56;;;14.86;77.04
45888;BME280;31595;51.418;7.572;2022-10-17T01:05:40;100452.34;;;14.86;77.16
45888;BME280;31595;51.418;7.572;2022-10-17T01:08:08;100456.31;;;14.85;76.92
45888;BME280;31595;51.418;7.572;2022-10-17T01:10:47;100449.88;;;14.84;76.91
45888;BME280;31595;51.418;7.572;2022-10-17T01:13:25;100457.13;;;14.85;77.47
45888;BME280;31595;51.418;7.572;2022-10-17T01:16:07;100453.03;;;14.82;76.49
45888;BME280;31595;51.418;7.572;2022-10-17T01:18:45;100453.25;;;14.77;76.92
45888;BME280;31595;51.418;7.572;2022-10-17T01:21:33;100449.63;;;14.77;76.50
45888;BME280;31595;51.418;7.572;2022-10-17T01:24:37;100441.88;;;14.74;77.76
45888;BME280;31595;51.418;7.572;2022-10-17T01:27:41;100445.53;;;14.74;78.23
45888;BME280;31595;51.418;7.572;2022-10-17T01:30:43;100449.16;;;14.75;78.43
45888;BME280;31595;51.418;7.572;2022-10-17T01:33:14;100440.72;;;14.75;78.39
45888;BME280;31595;51.418;7.572;2022-10-17T01:35:47;100436.28;;;14.74;78.84
45888;BME280;31595;51.418;7.572;2022-10-17T01:38:21;100440.72;;;14.75;77.64
45888;BME280;31595;51.418;7.572;2022-10-17T01:40:55;100446.34;;;14.75;78.43
45888;BME280;31595;51.418;7.572;2022-10-17T01:43:28;100447.97;;;14.76;77.94
45888;BME280;31595;51.418;7.572;2022-10-17T01:46:02;100446.34;;;14.75;78.48
45888;BME280;31595;51.418;7.572;2022-10-17T01:48:35;100443.88;;;14.73;79.04
45888;BME280;31595;51.418;7.572;2022-10-17T01:51:07;100454.41;;;14.76;79.17
45888;BME280;31595;51.418;7.572;2022-10-17T01:53:39;100448.91;;;14.80;78.35
45888;BME280;31595;51.418;7.572;2022-10-17T01:56:08;100444.81;;;14.77;79.17
45888;BME280;31595;51.418;7.572;2022-10-17T01:58:40;100444.97;;;14.81;78.97
45888;BME280;31595;51.418;7.572;2022-10-17T02:01:11;100430.63;;;14.82;78.73
45888;BME280;31595;51.418;7.572;2022-10-17T02:03:41;100432.25;;;14.84;79.29
45888;BME280;31595;51.418;7.572;2022-10-17T02:06:09;100427.09;;;14.86;79.08
45888;BME280;31595;51.418;7.572;2022-10-17T02:08:41;100431.66;;;14.90;79.75
45888;BME280;31595;51.418;7.572;2022-10-17T02:11:12;100437.09;;;14.95;80.33
45888;BME280;31595;51.418;7.572;2022-10-17T02:13:53;100426.81;;;14.99;79.55
45888;BME280;31595;51.418;7.572;2022-10-17T02:16:33;100430.78;;;14.98;79.90
45888;BME280;31595;51.418;7.572;2022-10-17T02:19:12;100421.75;;;14.93;79.63
45888;BME280;31595;51.418;7.572;2022-10-17T02:21:47;100425.72;;;14.92;79.01
45888;BME280;31595;51.418;7.572;2022-10-17T02:24:19;100434.13;;;14.92;79.63
45888;BME280;31595;51.418;7.572;2022-10-17T02:26:55;100420.47;;;14.90;79.33
45888;BME280;31595;51.418;7.572;2022-10-17T02:29:28;100408.56;;;14.93;79.22
45888;BME280;31595;51.418;7.572;2022-10-17T02:32:01;100417.44;;;14.95;79.68
45888;BME280;31595;51.418;7.572;2022-10-17T02:34:32;100416.75;;;14.98;79.26
45888;BME280;31595;51.418;7.572;2022-10-17T02:37:04;100418.41;;;14.99;80.46
45888;BME280;31595;51.418;7.572;2022-10-17T02:39:34;100420.50;;;15.02;79.59
45888;BME280;31595;51.418;7.572;2022-10-17T02:42:09;100421.78;;;15.05;79.58
45888;BME280;31595;51.418;7.572;2022-10-17T02:44:42;100413.03;;;15.07;79.31
45888;BME280;31595;51.418;7.572;2022-10-17T02:47:17;100409.53;;;15.10;79.76
45888;BME280;31595;51.418;7.572;2022-10-17T02:49:50;100416.91;;;15.14;81.00
45888;BME280;31595;51.418;7.572;2022-10-17T02:52:22;100414.22;;;15.18;79.99
45888;BME280;31595;51.418;7.572;2022-10-17T02:54:57;100418.53;;;15.15;80.63
45888;BME280;31595;51.418;7.572;2022-10-17T02:57:28;100408.97;;;15.16;80.40
45888;BME280;31595;51.418;7.572;2022-10-17T02:59:58;100411.66;;;15.13;80.36
45888;BME280;31595;51.418;7.572;2022-10-17T03:02:37;100406.66;;;15.18;80.50
45888;BME280;31595;51.418;7.572;2022-10-17T03:05:05;100405.47;;;15.19;80.67
45888;BME280;31595;51.418;7.572;2022-10-17T03:07:33;100415.63;;;15.24;81.13
45888;BME280;31595;51.418;7.572;2022-10-17T03:10:00;100410.50;;;15.26;81.49
45888;BME280;31595;51.418;7.572;2022-10-17T03:12:27;100413.56;;;15.33;80.79
45888;BME280;31595;51.418;7.572;2022-10-17T03:14:55;100419.53;;;15.32;81.88
45888;BME280;31595;51.418;7.572;2022-10-17T03:17:22;100412.38;;;15.34;81.32
45888;BME280;31595;51.418;7.572;2022-10-17T03:19:50;100418.59;;;15.40;81.24
45888;BME280;31595;51.418;7.572;2022-10-17T03:22:18;100422.50;;;15.48;82.58
45888;BME280;31595;51.418;7.572;2022-10-17T03:24:45;100420.38;;;15.57;83.03
45888;BME280;31595;51.418;7.572;2022-10-17T03:27:12;100413.38;;;15.63;82.75
45888;BME280;31595;51.418;7.572;2022-10-17T03:29:39;100410.78;;;15.70;82.82
45888;BME280;31595;51.418;7.572;2022-10-17T03:32:07;100422.31;;;15.77;83.30
45888;BME280;31595;51.418;7.572;2022-10-17T03:34:34;100409.88;;;15.91;83.36
45888;BME280;31595;51.418;7.572;2022-10-17T03:37:03;100417.13;;;16.04;82.73
45888;BME280;31595;51.418;7.572;2022-10-17T03:39:30;100419.22;;;16.19;83.87
45888;BME280;31595;51.418;7.572;2022-10-17T03:41:57;100430.38;;;16.44;83.60
45888;BME280;31595;51.418;7.572;2022-10-17T03:44:25;100428.25;;;16.66;83.16
45888;BME280;31595;51.418;7.572;2022-10-17T03:46:52;100429.97;;;16.82;82.42
45888;BME280;31595;51.418;7.572;2022-10-17T03:49:19;100421.56;;;16.98;81.54
45888;BME280;31595;51.418;7.572;2022-10-17T03:51:46;100418.06;;;17.17;80.79
45888;BME280;31595;51.418;7.572;2022-10-17T03:54:15;100415.16;;;17.30;80.20
45888;BME280;31595;51.418;7.572;2022-10-17T03:56:42;100413.81;;;17.39;79.53
45888;BME280;31595;51.418;7.572;2022-10-17T03:59:12;100427.09;;;17.55;78.44
45888;BME280;31595;51.418;7.572;2022-10-17T04:01:39;100422.81;;;17.61;78.22
45888;BME280;31595;51.418;7.572;2022-10-17T04:04:07;100428.34;;;17.73;77.46
45888;BME280;31595;51.418;7.572;2022-10-17T04:06:35;100430.44;;;17.76;76.85
45888;BME280;31595;51.418;7.572;2022-10-17T04:09:03;100432.09;;;17.77;76.24
45888;BME280;31595;51.418;7.572;2022-10-17T04:11:32;100438.19;;;17.79;76.23
45888;BME280;31595;51.418;7.572;2022-10-17T04:13:59;100436.44;;;17.75;75.67
45888;BME280;31595;51.418;7.572;2022-10-17T04:16:26;100443.59;;;17.72;75.44
45888;BME280;31595;51.418;7.572;2022-10-17T04:18:55;100442.72;;;17.68;75.76
45888;BME280;31595;51.418;7.572;2022-10-17T04:21:23;100435.34;;;17.63;76.00
45888;BME280;31595;51.418;7.572;2022-10-17T04:23:53;100444.63;;;17.64;76.23
45888;BME280;31595;51.418;7.572;2022-10-17T04:26:21;100443.53;;;17.69;76.63
45888;BME280;31595;51.418;7.572;2022-10-17T04:28:50;100438.06;;;17.76;75.72
45888;BME280;31595;51.418;7.572;2022-10-17T04:31:17;100440.19;;;17.79;75.28
45888;BME280;31595;51.418;7.572;2022-10-17T04:33:46;100434.28;;;17.84;75.70
45888;BME280;31595;51.418;7.572;2022-10-17T04:36:15;100432.66;;;17.83;75.00
45888;BME280;31595;51.418;7.572;2022-10-17T04:38:42;100435.94;;;17.85;75.07
45888;BME280;31595;51.418;7.572;2022-10-17T04:41:11;100436.97;;;17.80;75.23
45888;BME280;31595;51.418;7.572;2022-10-17T04:43:39;100432.38;;;17.88;75.28
45888;BME280;31595;51.418;7.572;2022-10-17T04:46:09;100438.56;;;17.94;74.39
45888;BME280;31595;51.418;7.572;2022-10-17T04:48:38;100433.28;;;18.08;74.59
45888;BME280;31595;51.418;7.572;2022-10-17T04:51:09;100426.88;;;18.11;74.35
45888;BME280;31595;51.418;7.572;2022-10-17T04:53:37;100429.84;;;18.18;73.93
45888;BME280;31595;51.418;7.572;2022-10-17T04:56:09;100438.50;;;18.25;73.29
45888;BME280;31595;51.418;7.572;2022-10-17T04:58:37;100452.38;;;18.34;73.37
45888;BME280;31595;51.418;7.572;2022-10-17T05:01:06;100463.47;;;18.43;72.63
45888;BME280;31595;51.418;7.572;2022-10-17T05:03:35;100460.72;;;18.46;72.66
45888;BME280;31595;51.418;7.572;2022-10-17T05:06:04;100459.16;;;18.49;72.23
45888;BME280;31595;51.418;7.572;2022-10-17T05:08:32;100459.91;;;18.46;72.28
45888;BME280;31595;51.418;7.572;2022-10-17T05:10:59;100447.88;;;18.49;71.85
45888;BME280;31595;51.418;7.572;2022-10-17T05:13:27;100448.63;;;18.46;72.34
45888;BME280;31595;51.418;7.572;2022-10-17T05:15:57;100443.06;;;18.50;72.19
45888;BME280;31595;51.418;7.572;2022-10-17T05:18:25;100445.06;;;18.49;71.48
45888;BME280;31595;51.418;7.572;2022-10-17T05:20:54;100445.69;;;18.58;71.88
45888;BME280;31595;51.418;7.572;2022-10-17T05:23:21;100448.22;;;18.63;70.84
45888;BME280;31595;51.418;7.572;2022-10-17T05:25:53;100447.44;;;18.66;70.41
45888;BME280;31595;51.418;7.572;2022-10-17T05:28:20;100452.19;;;18.78;70.75
45888;BME280;31595;51.418;7.572;2022-10-17T05:30:48;100459.88;;;18.81;70.52
45888;BME280;31595;51.418;7.572;2022-10-17T05:33:15;100476.00;;;18.81;69.77
45888;BME280;31595;51.418;7.572;2022-10-17T05:35:42;100475.41;;;18.91;69.40
45888;BME280;31595;51.418;7.572;2022-10-17T05:38:11;100467.41;;;18.93;69.32
45888;BME280;31595;51.418;7.572;2022-10-17T05:40:38;100466.97;;;18.91;69.52
45888;BME280;31595;51.418;7.572;2022-10-17T05:43:05;100478.25;;;18.91;70.09
45888;BME280;31595;51.418;7.572;2022-10-17T05:45:32;100481.25;;;18.98;69.02
45888;BME280;31595;51.418;7.572;2022-10-17T05:48:00;100473.50;;;18.95;68.74
45888;BME280;31595;51.418;7.572;2022-10-17T05:50:27;100466.69;;;18.96;69.23
45888;BME280;31595;51.418;7.572;2022-10-17T05:52:54;100469.94;;;18.98;69.35
45888;BME280;31595;51.418;7.572;2022-10-17T05:55:23;100474.06;;;19.04;68.23
45888;BME280;31595;51.418;7.572;2022-10-17T05:57:50;100466.94;;;19.11;69.08
45888;BME280;31595;51.418;7.572;2022-10-17T06:00:19;100480.69;;;19.12;68.50
45888;BME280;31595;51.418;7.572;2022-10-17T06:02:46;100483.63;;;18.96;68.98
45888;BME280;31595;51.418;7.572;2022-10-17T06:05:14;100489.09;;;19.09;68.84
45888;BME280;31595;51.418;7.572;2022-10-17T06:07:42;100484.72;;;19.11;68.41
45888;BME280;31595;51.418;7.572;2022-10-17T06:10:09;100486.19;;;19.24;67.99
45888;BME280;31595;51.418;7.572;2022-10-17T06:12:39;100487.44;;;19.27;67.19
45888;BME280;31595;51.418;7.572;2022-10-17T06:15:07;100490.25;;;19.27;67.71
45888;BME280;31595;51.418;7.572;2022-10-17T06:17:36;100489.09;;;19.28;67.67
45888;BME280;31595;51.418;7.572;2022-10-17T06:20:04;100487.16;;;19.32;67.59
45888;BME280;31595;51.418;7.572;2022-10-17T06:22:31;100491.75;;;19.40;67.00
45888;BME280;31595;51.418;7.572;2022-10-17T06:24:59;100496.03;;;19.54;66.23
45888;BME280;31595;51.418;7.572;2022-10-17T06:27:26;100497.19;;;19.53;66.52
45888;BME280;31595;51.418;7.572;2022-10-17T06:29:54;100505.38;;;19.58;65.64
45888;BME280;31595;51.418;7.572;2022-10-17T06:32:22;100520.53;;;19.69;65.98
45888;BME280;31595;51.418;7.572;2022-10-17T06:34:49;100500.63;;;19.62;66.43
45888;BME280;31595;51.418;7.572;2022-10-17T06:37:18;100507.09;;;19.62;66.14
45888;BME280;31595;51.418;7.572;2022-10-17T06:39:49;100520.03;;;19.63;65.70
45888;BME280;31595;51.418;7.572;2022-10-17T06:42:16;100519.38;;;19.70;66.41
45888;BME280;31595;51.418;7.572;2022-10-17T06:44:43;100528.13;;;19.84;66.09
45888;BME280;31595;51.418;7.572;2022-10-17T06:47:12;100531.56;;;19.97;64.44
45888;BME280;31595;51.418;7.572;2022-10-17T06:49:39;100536.19;;;20.09;64.24
45888;BME280;31595;51.418;7.572;2022-10-17T06:52:06;100535.31;;;20.28;63.42
45888;BME280;31595;51.418;7.572;2022-10-17T06:54:34;100550.59;;;20.23;63.16
45888;BME280;31595;51.418;7.572;2022-10-17T06:57:01;100538.63;;;20.34;63.59
45888;BME280;31595;51.418;7.572;2022-10-17T06:59:28;100541.91;;;20.36;62.56
45888;BME280;31595;51.418;7.572;2022-10-17T07:01:56;100529.75;;;20.58;62.41
45888;BME280;31595;51.418;7.572;2022-10-17T07:04:24;100540.47;;;20.49;62.97
45888;BME280;31595;51.418;7.572;2022-10-17T07:06:52;100531.94;;;20.68;62.16
45888;BME280;31595;51.418;7.572;2022-10-17T07:09:19;100532.75;;;20.69;62.05
45888;BME280;31595;51.418;7.572;2022-10-17T07:11:47;100531.59;;;21.04;60.83
45888;BME280;31595;51.418;7.572;2022-10-17T07:14:14;100528.94;;;21.18;60.67
45888;BME280;31595;51.418;7.572;2022-10-17T07:16:42;100534.69;;;21.56;59.20
45888;BME280;31595;51.418;7.572;2022-10-17T07:19:10;100539.59;;;21.59;58.97
45888;BME280;31595;51.418;7.572;2022-10-17T07:21:38;100543.25;;;22.04;58.07
45888;BME280;31595;51.418;7.572;2022-10-17T07:24:06;100539.41;;;22.23;57.00
45888;BME280;31595;51.418;7.572;2022-10-17T07:26:33;100548.13;;;22.48;56.28
45888;BME280;31595;51.418;7.572;2022-10-17T07:29:00;100546.25;;;22.74;55.20
45888;BME280;31595;51.418;7.572;2022-10-17T07:31:27;100550.78;;;22.85;55.20
45888;BME280;31595;51.418;7.572;2022-10-17T07:33:55;100553.66;;;22.89;55.04
45888;BME280;31595;51.418;7.572;2022-10-17T07:36:22;100558.78;;;23.39;53.60
45888;BME280;31595;51.418;7.572;2022-10-17T07:38:51;100549.22;;;24.01;52.87
45888;BME280;31595;51.418;7.572;2022-10-17T07:41:18;100549.22;;;24.73;49.81
45888;BME280;31595;51.418;7.572;2022-10-17T07:43:46;100545.84;;;25.21;49.33
45888;BME280;31595;51.418;7.572;2022-10-17T07:46:13;100541.97;;;25.67;48.03
45888;BME280;31595;51.418;7.572;2022-10-17T07:48:40;100546.72;;;25.88;46.96
45888;BME280;31595;51.418;7.572;2022-10-17T07:51:08;100553.28;;;26.41;45.78
45888;BME280;31595;51.418;7.572;2022-10-17T07:53:36;100547.88;;;26.95;44.69
45888;BME280;31595;51.418;7.572;2022-10-17T07:56:07;100550.69;;;26.99;44.10
45888;BME280;31595;51.418;7.572;2022-10-17T07:58:35;100552.06;;;26.42;45.43
45888;BME280;31595;51.418;7.572;2022-10-17T08:01:05;100542.22;;;25.87;46.50
45888;BME280;31595;51.418;7.572;2022-10-17T08:03:33;100541.63;;;25.58;47.16
45888;BME280;31595;51.418;7.572;2022-10-17T08:06:01;100548.28;;;25.26;48.34
45888;BME280;31595;51.418;7.572;2022-10-17T08:08:29;100554.50;;;24.85;48.85
45888;BME280;31595;51.418;7.572;2022-10-17T08:11:01;100548.41;;;24.47;50.21
45888;BME280;31595;51.418;7.572;2022-10-17T08:13:30;100554.53;;;24.35;50.20
45888;BME280;31595;51.418;7.572;2022-10-17T08:15:59;100563.06;;;24.13;50.72
45888;BME280;31595;51.418;7.572;2022-10-17T08:18:26;100559.81;;;24.25;51.00
45888;BME280;31595;51.418;7.572;2022-10-17T08:20:53;100552.50;;;24.60;50.39
45888;BME280;31595;51.418;7.572;2022-10-17T08:23:21;100559.75;;;24.94;48.87
45888;BME280;31595;51.418;7.572;2022-10-17T08:25:48;100552.41;;;25.00;48.78
45888;BME280;31595;51.418;7.572;2022-10-17T08:28:15;100549.84;;;25.38;47.42
45888;BME280;31595;51.418;7.572;2022-10-17T08:30:44;100546.41;;;25.75;46.24
45888;BME280;31595;51.418;7.572;2022-10-17T08:33:11;100559.47;;;26.32;45.25
45888;BME280;31595;51.418;7.572;2022-10-17T08:35:38;100559.91;;;26.76;44.00
45888;BME280;31595;51.418;7.572;2022-10-17T08:38:05;100561.06;;;27.54;42.52
45888;BME280;31595;51.418;7.572;2022-10-17T08:40:33;100564.09;;;28.76;40.13
45888;BME280;31595;51.418;7.572;2022-10-17T08:43:16;100557.47;;;29.42;38.44
45888;BME280;31595;51.418;7.572;2022-10-17T08:45:51;100561.38;;;29.32;38.72
45888;BME280;31595;51.418;7.572;2022-10-17T08:48:23;100563.13;;;29.26;38.09
45888;BME280;31595;51.418;7.572;2022-10-17T08:50:53;100576.59;;;29.29;38.38
45888;BME280;31595;51.418;7.572;2022-10-17T08:53:26;100577.09;;;29.64;37.58
45888;BME280;31595;51.418;7.572;2022-10-17T08:55:55;100566.00;;;29.26;37.55
45888;BME280;31595;51.418;7.572;2022-10-17T08:58:26;100560.69;;;30.17;37.07
45888;BME280;31595;51.418;7.572;2022-10-17T09:01:02;100564.94;;;31.07;34.93
45888;BME280;31595;51.418;7.572;2022-10-17T09:03:51;100566.47;;;31.54;35.01
45888;BME280;31595;51.418;7.572;2022-10-17T09:06:26;100580.78;;;31.70;33.47
45888;BME280;31595;51.418;7.572;2022-10-17T09:09:05;100584.72;;;31.89;33.25
45888;BME280;31595;51.418;7.572;2022-10-17T09:11:47;100580.47;;;31.81;33.34
45888;BME280;31595;51.418;7.572;2022-10-17T09:14:38;100590.03;;;32.68;32.61
45888;BME280;31595;51.418;7.572;2022-10-17T09:17:17;100580.44;;;33.06;32.37
45888;BME280;31595;51.418;7.572;2022-10-17T09:19:54;100570.47;;;33.64;30.89
45888;BME280;31595;51.418;7.572;2022-10-17T09:22:27;100586.41;;;33.24;31.72
45888;BME280;31595;51.418;7.572;2022-10-17T09:24:58;100574.84;;;32.29;33.09
45888;BME280;31595;51.418;7.572;2022-10-17T09:27:34;100569.53;;;32.27;33.46
45888;BME280;31595;51.418;7.572;2022-10-17T09:30:21;100582.25;;;31.49;34.11
45888;BME280;31595;51.418;7.572;2022-10-17T09:32:50;100580.38;;;32.10;33.32
45888;BME280;31595;51.418;7.572;2022-10-17T09:35:19;100586.94;;;32.36;32.83
45888;BME280;31595;51.418;7.572;2022-10-17T09:37:48;100575.03;;;31.96;33.61
45888;BME280;31595;51.418;7.572;2022-10-17T09:40:20;100576.66;;;32.61;32.46
45888;BME280;31595;51.418;7.572;2022-10-17T09:42:49;100579.22;;;32.59;32.75
45888;BME280;31595;51.418;7.572;2022-10-17T09:45:18;100602.16;;;32.37;32.45
45888;BME280;31595;51.418;7.572;2022-10-17T09:47:56;100608.69;;;33.68;31.01
45888;BME280;31595;51.418;7.572;2022-10-17T09:50:27;100629.91;;;33.30;31.21
45888;BME280;31595;51.418;7.572;2022-10-17T09:52:56;100620.25;;;33.99;30.57
45888;BME280;31595;51.418;7.572;2022-10-17T09:55:31;100621.06;;;34.90;28.46
45888;BME280;31595;51.418;7.572;2022-10-17T09:58:02;100629.81;;;33.87;29.94
45888;BME280;31595;51.418;7.572;2022-10-17T10:00:31;100636.19;;;34.04;30.16
45888;BME280;31595;51.418;7.572;2022-10-17T10:03:10;100641.28;;;33.11;30.97
45888;BME280;31595;51.418;7.572;2022-10-17T10:05:40;100651.50;;;33.25;30.91
45888;BME280;31595;51.418;7.572;2022-10-17T10:08:13;100632.50;;;32.42;32.91
45888;BME280;31595;51.418;7.572;2022-10-17T10:10:41;100645.88;;;32.10;33.86
45888;BME280;31595;51.418;7.572;2022-10-17T10:13:17;100655.75;;;30.43;35.84
45888;BME280;31595;51.418;7.572;2022-10-17T10:15:46;100662.31;;;29.67;36.63
45888;BME280;31595;51.418;7.572;2022-10-17T10:21:06;100652.69;;;28.66;39.15
45888;BME280;31595;51.418;7.572;2022-10-17T10:23:34;100661.59;;;27.56;41.33
45888;BME280;31595;51.418;7.572;2022-10-17T10:26:15;100664.06;;;27.12;42.53
45888;BME280;31595;51.418;7.572;2022-10-17T10:28:49;100668.63;;;26.54;43.70
45888;BME280;31595;51.418;7.572;2022-10-17T10:31:25;100676.31;;;26.08;44.90
45888;BME280;31595;51.418;7.572;2022-10-17T10:33:53;100672.34;;;25.77;45.92
45888;BME280;31595;51.418;7.572;2022-10-17T10:36:22;100687.09;;;25.58;46.57
45888;BME280;31595;51.418;7.572;2022-10-17T10:38:54;100683.50;;;25.25;48.06
45888;BME280;31595;51.418;7.572;2022-10-17T10:41:23;100682.69;;;25.21;48.05
45888;BME280;31595;51.418;7.572;2022-10-17T10:43:53;100719.34;;;25.04;48.63
45888;BME280;31595;51.418;7.572;2022-10-17T10:46:24;100709.16;;;24.85;49.02
45888;BME280;31595;51.418;7.572;2022-10-17T10:48:54;100697.34;;;24.80;48.52
45888;BME280;31595;51.418;7.572;2022-10-17T10:51:29;100711.63;;;25.01;48.74
45888;BME280;31595;51.418;7.572;2022-10-17T10:54:02;100706.31;;;24.75;48.91
45888;BME280;31595;51.418;7.572;2022-10-17T10:56:36;100714.44;;;24.80;49.28
45888;BME280;31595;51.418;7.572;2022-10-17T10:59:09;100706.31;;;24.96;48.67
45888;BME280;31595;51.418;7.572;2022-10-17T11:01:44;100711.22;;;24.99;49.02
45888;BME280;31595;51.418;7.572;2022-10-17T11:04:22;100707.13;;;25.04;49.02
45888;BME280;31595;51.418;7.572;2022-10-17T11:06:58;100708.31;;;24.52;49.67
45888;BME280;31595;51.418;7.572;2022-10-17T11:09:33;100730.66;;;24.47;50.23
45888;BME280;31595;51.418;7.572;2022-10-17T11:12:06;100730.66;;;24.36;50.70
45888;BME280;31595;51.418;7.572;2022-10-17T11:14:42;100730.56;;;24.11;51.27
45888;BME280;31595;51.418;7.572;2022-10-17T11:17:21;100741.56;;;24.20;51.03
45888;BME280;31595;51.418;7.572;2022-10-17T11:19:58;100738.66;;;23.98;51.26
45888;BME280;31595;51.418;7.572;2022-10-17T11:22:30;100743.56;;;24.12;51.82
45888;BME280;31595;51.418;7.572;2022-10-17T11:25:02;100749.97;;;23.84;52.68
45888;BME280;31595;51.418;7.572;2022-10-17T11:27:32;100754.03;;;23.86;52.47
45888;BME280;31595;51.418;7.572;2022-10-17T11:30:00;100767.03;;;23.87;52.10
45888;BME280;31595;51.418;7.572;2022-10-17T11:32:33;100760.75;;;23.57;52.97
45888;BME280;31595;51.418;7.572;2022-10-17T11:35:04;100757.19;;;23.74;52.84
45888;BME280;31595;51.418;7.572;2022-10-17T11:37:36;100762.84;;;23.67;52.86
45888;BME280;31595;51.418;7.572;2022-10-17T11:40:14;100763.63;;;23.60;53.20
45888;BME280;31595;51.418;7.572;2022-10-17T11:42:47;100766.84;;;23.59;53.20
45888;BME280;31595;51.418;7.572;2022-10-17T11:45:20;100769.28;;;23.57;53.36
45888;BME280;31595;51.418;7.572;2022-10-17T11:47:50;100768.09;;;23.61;52.75
45888;BME280;31595;51.418;7.572;2022-10-17T11:50:23;100772.59;;;23.69;52.59
45888;BME280;31595;51.418;7.572;2022-10-17T11:52:57;100770.97;;;23.65;53.02
45888;BME280;31595;51.418;7.572;2022-10-17T11:55:27;100776.47;;;23.43;54.09
45888;BME280;31595;51.418;7.572;2022-10-17T11:58:03;100764.34;;;23.46;53.93
45888;BME280;31595;51.418;7.572;2022-10-17T12:00:44;100772.56;;;23.66;53.08
45888;BME280;31595;51.418;7.572;2022-10-17T12:03:25;100762.78;;;23.60;53.78
45888;BME280;31595;51.418;7.572;2022-10-17T12:05:59;100755.16;;;23.75;53.17
45888;BME280;31595;51.418;7.572;2022-10-17T12:08:35;100753.16;;;23.75;53.10
45888;BME280;31595;51.418;7.572;2022-10-17T12:11:13;100752.72;;;23.73;52.82
45888;BME280;31595;51.418;7.572;2022-10-17T12:13:51;100744.09;;;23.55;53.70
45888;BME280;31595;51.418;7.572;2022-10-17T12:16:46;100751.31;;;23.45;53.78
45888;BME280;31595;51.418;7.572;2022-10-17T12:19:26;100746.03;;;23.40;53.75
45888;BME280;31595;51.418;7.572;2022-10-17T12:22:02;100750.56;;;23.52;53.91
45888;BME280;31595;51.418;7.572;2022-10-17T12:24:38;100746.97;;;23.59;53.78
45888;BME280;31595;51.418;7.572;2022-10-17T12:27:30;100755.44;;;23.55;53.42
45888;BME280;31595;51.418;7.572;2022-10-17T12:29:59;100755.41;;;23.51;54.02
45888;BME280;31595;51.418;7.572;2022-10-17T12:32:27;100761.06;;;23.44;53.97
45888;BME280;31595;51.418;7.572;2022-10-17T12:34:55;100762.75;;;23.53;53.73
45888;BME280;31595;51.418;7.572;2022-10-17T12:40:48;100758.34;;;23.66;54.21
45888;BME280;31595;51.418;7.572;2022-10-17T12:46:54;100765.00;;;23.84;52.99
45888;BME280;31595;51.418;7.572;2022-10-17T12:49:38;100768.28;;;23.90;53.41
45888;BME280;31595;51.418;7.572;2022-10-17T12:55:09;100770.28;;;23.82;52.94
45888;BME280;31595;51.418;7.572;2022-10-17T12:57:46;100774.38;;;23.88;52.88
45888;BME280;31595;51.418;7.572;2022-10-17T13:00:21;100772.78;;;24.02;53.29
45888;BME280;31595;51.418;7.572;2022-10-17T13:02:51;100776.97;;;24.29;51.94
45888;BME280;31595;51.418;7.572;2022-10-17T13:05:25;100760.22;;;24.10;52.82
45888;BME280;31595;51.418;7.572;2022-10-17T13:07:54;100758.13;;;23.93;53.42
45888;BME280;31595;51.418;7.572;2022-10-17T13:10:24;100770.75;;;23.99;53.34
45888;BME280;31595;51.418;7.572;2022-10-17T13:13:12;100778.88;;;23.97;53.51
45888;BME280;31595;51.418;7.572;2022-10-17T13:15:45;100772.00;;;24.01;52.89
45888;BME280;31595;51.418;7.572;2022-10-17T13:18:18;100784.59;;;24.04;52.70
45888;BME280;31595;51.418;7.572;2022-10-17T13:20:57;100786.59;;;23.93;53.64
45888;BME280;31595;51.418;7.572;2022-10-17T13:23:29;100790.28;;;24.04;53.61